createdAt,value
2023-04-09T00:04:51.035Z,3.3
2023-04-09T00:09:50.120Z,3
2023-04-09T00:14:49.277Z,1.4
2023-04-09T00:19:48.418Z,3.1
2023-04-09T00:24:47.506Z,2.7
2023-04-09T00:29:46.646Z,4.2
2023-04-09T00:34:45.806Z,3.5
2023-04-09T00:39:44.915Z,3.7
2023-04-09T00:44:44.003Z,1.3
2023-04-09T00:49:43.132Z,3.4
2023-04-09T00:54:42.294Z,2.9
2023-04-09T00:59:41.417Z,3.3
2023-04-09T01:04:40.660Z,3.9
2023-04-09T01:09:39.744Z,3.3
2023-04-09T01:14:38.888Z,2.6
2023-04-09T01:19:38.042Z,2.8
2023-04-09T01:24:37.166Z,3.4
2023-04-09T01:29:36.303Z,3.4
2023-04-09T01:34:35.474Z,3.8
2023-04-09T01:39:34.616Z,3.7
2023-04-09T01:44:33.767Z,4
2023-04-09T01:49:32.857Z,5
2023-04-09T01:54:31.953Z,4.1
2023-04-09T01:59:31.088Z,2.5
2023-04-09T02:04:30.227Z,2.9
2023-04-09T02:09:29.315Z,3
2023-04-09T02:14:28.453Z,3.5
2023-04-09T02:19:27.593Z,2.6
2023-04-09T02:24:26.725Z,4.7
2023-04-09T02:29:25.878Z,4.6
2023-04-09T02:34:25.000Z,3.8
2023-04-09T02:39:24.177Z,2.5
2023-04-09T02:44:23.307Z,2.1
2023-04-09T02:49:22.523Z,2.4
2023-04-09T02:54:21.672Z,4
2023-04-09T02:59:20.832Z,1.8
2023-04-09T03:04:20.108Z,2.8
2023-04-09T03:09:19.137Z,4.6
2023-04-09T03:14:18.286Z,2.3
2023-04-09T03:19:17.475Z,2.8
2023-04-09T03:24:16.567Z,4.2
2023-04-09T03:29:15.704Z,3.3
2023-04-09T03:34:14.850Z,2.9
2023-04-09T03:39:13.965Z,3.4
2023-04-09T03:44:13.120Z,3.6
2023-04-09T03:49:12.208Z,3.6
2023-04-09T03:54:11.407Z,3.3
2023-04-09T03:59:10.506Z,3.7
2023-04-09T04:04:09.927Z,4.3
2023-04-09T04:09:08.810Z,2.4
2023-04-09T04:14:07.950Z,2.8
2023-04-09T04:19:07.115Z,2.5
2023-04-09T04:24:06.330Z,3.5
2023-04-09T04:29:05.418Z,3.8
2023-04-09T04:34:04.572Z,5.7
2023-04-09T04:39:03.683Z,3.4
2023-04-09T04:44:02.855Z,3.9
2023-04-09T04:49:02.003Z,2.4
2023-04-09T04:54:01.151Z,4.7
2023-04-09T04:59:00.258Z,3.3
2023-04-09T05:03:59.471Z,6.5
2023-04-09T05:08:58.580Z,4.3
2023-04-09T05:13:57.761Z,5.7
2023-04-09T05:18:56.919Z,2.9
2023-04-09T05:23:56.094Z,4.1
2023-04-09T05:28:55.236Z,3.7
2023-04-09T05:33:54.426Z,3.3
2023-04-09T05:38:53.844Z,3.5
2023-04-09T05:43:53.091Z,4.3
2023-04-09T05:48:52.110Z,3.3
2023-04-09T05:53:51.338Z,3.2
2023-04-09T05:58:50.285Z,3.5
2023-04-09T06:03:49.722Z,3.4
2023-04-09T06:08:48.754Z,2.9
2023-04-09T06:13:47.923Z,4.5
2023-04-09T06:18:47.100Z,22.5
2023-04-09T06:23:46.367Z,3.1
2023-04-09T06:28:45.539Z,4.4
2023-04-09T06:33:44.740Z,4.6
2023-04-09T06:38:43.967Z,9.8
2023-04-09T06:43:43.172Z,4.7
2023-04-09T06:48:42.423Z,12.6
2023-04-09T06:53:41.691Z,6
2023-04-09T06:58:40.846Z,13.3
2023-04-09T07:03:40.329Z,5.3
2023-04-09T07:08:39.296Z,6.1
2023-04-09T07:13:38.528Z,3.5
2023-04-09T07:18:37.760Z,3.1
2023-04-09T07:23:37.308Z,4.8
2023-04-09T07:28:36.288Z,7.5
2023-04-09T07:33:35.543Z,5.5
2023-04-09T07:38:34.805Z,4
2023-04-09T07:43:34.069Z,5.7
2023-04-09T07:48:33.279Z,12.9
2023-04-09T07:53:32.572Z,10
2023-04-09T07:58:31.802Z,7.9
2023-04-09T08:03:31.582Z,6.7
2023-04-09T08:08:30.375Z,5.7
2023-04-09T08:13:29.542Z,8.1
2023-04-09T08:18:28.816Z,6.9
2023-04-09T08:23:28.092Z,8.3
2023-04-09T08:28:27.378Z,9.1
2023-04-09T08:33:26.644Z,11
2023-04-09T08:38:25.902Z,10.6
2023-04-09T08:43:33.696Z,10
2023-04-09T08:48:24.556Z,12.4
2023-04-09T08:53:23.788Z,8
2023-04-09T08:58:23.093Z,8.8
2023-04-09T09:03:22.455Z,8.4
2023-04-09T09:08:21.669Z,7.6
2023-04-09T09:13:21.004Z,7.7
2023-04-09T09:18:20.323Z,6.7
2023-04-09T09:23:19.654Z,7.4
2023-04-09T09:28:18.941Z,7.7
2023-04-09T09:33:18.265Z,6.8
2023-04-09T09:38:17.591Z,5.7
2023-04-09T09:43:16.925Z,7.3
2023-04-09T09:48:16.272Z,6
2023-04-09T09:53:15.641Z,8.5
2023-04-09T09:58:14.991Z,8.1
2023-04-09T10:03:14.329Z,7
2023-04-09T10:08:13.721Z,7.6
2023-04-09T10:13:13.161Z,5.1
2023-04-09T10:23:12.121Z,5.3
2023-04-09T10:43:09.262Z,6.8
2023-04-09T10:48:08.616Z,7.5
2023-04-09T10:53:08.008Z,6.6
2023-04-09T10:58:09.681Z,7
2023-04-09T11:03:06.897Z,8
2023-04-09T11:08:06.094Z,8.4
2023-04-09T11:13:05.418Z,7.4
2023-04-09T11:18:04.797Z,6.8
2023-04-09T11:23:04.148Z,6.8
2023-04-09T11:28:03.559Z,6.4
2023-04-09T11:33:02.987Z,7.9
2023-04-09T11:38:02.328Z,5.6
2023-04-09T11:43:01.772Z,6
2023-04-09T11:48:01.262Z,6.9
2023-04-09T11:53:00.540Z,7.2
2023-04-09T11:57:59.938Z,6.6
2023-04-09T12:02:59.547Z,6.6
2023-04-09T12:07:58.742Z,6.5
2023-04-09T12:12:58.116Z,6.1
2023-04-09T12:17:57.558Z,6.1
2023-04-09T12:22:56.972Z,7.4
2023-04-09T12:27:56.357Z,7.5
2023-04-09T12:32:55.862Z,6.7
2023-04-09T12:37:55.175Z,7.4
2023-04-09T12:42:54.551Z,4.8
2023-04-09T12:47:53.997Z,5.9
2023-04-09T12:52:53.414Z,6.1
2023-04-09T12:57:52.824Z,5.7
2023-04-09T13:02:52.522Z,6.7
2023-04-09T13:07:51.594Z,7.1
2023-04-09T13:12:51.036Z,6.7
2023-04-09T13:17:50.523Z,6.5
2023-04-09T13:22:49.835Z,8.2
2023-04-09T13:27:49.209Z,6.7
2023-04-09T13:32:48.621Z,6.8
2023-04-09T13:37:48.037Z,9.6
2023-04-09T13:42:47.418Z,10.3
2023-04-09T13:47:46.828Z,26.8
2023-04-09T13:52:46.228Z,14.2
2023-04-09T13:57:47.108Z,7.7
2023-04-09T14:02:45.062Z,17.8
2023-04-09T14:07:44.345Z,25.5
2023-04-09T14:12:43.695Z,10.6
2023-04-09T14:17:43.041Z,7.7
2023-04-09T14:22:42.414Z,13.3
2023-04-09T14:27:41.774Z,10.5
2023-04-09T14:32:41.222Z,14
2023-04-09T14:37:40.484Z,17.1
2023-04-09T14:42:40.165Z,17.1
2023-04-09T14:47:39.270Z,14.6
2023-04-09T14:52:38.579Z,17.1
2023-04-09T14:57:37.992Z,23.4
2023-04-09T15:02:37.810Z,6.2
2023-04-09T15:07:36.699Z,3.9
2023-04-09T15:12:36.083Z,6.5
2023-04-09T15:17:35.511Z,7.5
2023-04-09T15:22:34.812Z,6.2
2023-04-09T15:27:34.193Z,5.6
2023-04-09T15:32:33.614Z,6.6
2023-04-09T15:37:32.966Z,5.3
2023-04-09T15:42:32.403Z,4.5
2023-04-09T15:47:33.161Z,15.5
2023-04-09T15:52:31.221Z,8
2023-04-09T15:57:30.646Z,6.2
2023-04-09T16:02:30.092Z,6.2
2023-04-09T16:07:30.692Z,16.5
2023-04-09T18:32:10.312Z,26.6
2023-04-09T18:37:09.555Z,18.1
2023-04-09T18:42:08.835Z,19.8
2023-04-09T18:47:08.060Z,21.9
2023-04-09T18:52:07.311Z,23
2023-04-09T18:57:06.633Z,20.2
2023-04-09T19:02:06.352Z,17.7
2023-04-09T19:07:05.053Z,21.9
2023-04-09T19:12:04.299Z,20.4
2023-04-09T19:17:03.514Z,20.9
2023-04-09T19:22:02.758Z,21
2023-04-09T19:27:01.984Z,17.3
2023-04-09T19:32:01.287Z,16.5
2023-04-09T19:37:00.422Z,14.1
2023-04-09T19:41:59.613Z,11.8
2023-04-09T19:47:01.933Z,11.1
2023-04-09T19:51:58.029Z,9.9
2023-04-09T19:56:57.220Z,10
2023-04-09T20:01:56.575Z,9.3
2023-04-09T20:06:55.664Z,8.8
2023-04-09T20:11:54.845Z,7
2023-04-09T20:16:54.202Z,9.1
2023-04-09T20:21:53.268Z,7.6
2023-04-09T20:26:52.459Z,13.4
2023-04-09T20:31:51.700Z,7.5
2023-04-09T20:36:50.836Z,8
2023-04-09T20:41:49.986Z,6.2
2023-04-09T20:46:49.190Z,5.6
2023-04-09T20:51:48.343Z,4.6
2023-04-09T20:56:47.572Z,5
2023-04-09T21:01:46.847Z,4.7
2023-04-09T21:06:45.913Z,4.8
2023-04-09T21:11:45.118Z,4.8
2023-04-09T21:16:44.294Z,4.5
2023-04-09T21:21:43.478Z,4.9
2023-04-09T21:31:41.784Z,5.2
2023-04-09T21:36:40.920Z,5.4
2023-04-09T21:41:40.164Z,5.7
2023-04-09T21:46:39.493Z,5
2023-04-09T21:51:38.524Z,5.5
2023-04-09T21:56:37.676Z,6.8
2023-04-09T22:01:37.006Z,6.8
2023-04-09T22:06:36.080Z,4.5
2023-04-09T22:11:35.192Z,5.5
2023-04-09T22:16:34.530Z,6.9
2023-04-09T22:21:33.510Z,5.8
2023-04-09T22:26:32.627Z,4.1
2023-04-09T22:31:31.768Z,5.9
2023-04-09T22:36:30.993Z,6.2
2023-04-09T22:41:30.138Z,6.4
2023-04-09T22:46:29.351Z,4.3
2023-04-09T22:51:28.444Z,4.9
2023-04-09T22:56:27.607Z,5.9
2023-04-09T23:01:26.780Z,5.3
2023-04-09T23:06:25.922Z,6.2
2023-04-09T23:11:25.127Z,3.7
2023-04-09T23:16:24.348Z,5.7
2023-04-09T23:21:23.392Z,4.7
2023-04-09T23:26:22.568Z,4.5
2023-04-09T23:31:21.731Z,4.7
2023-04-09T23:36:20.868Z,5.1
2023-04-09T23:41:20.009Z,4.8
2023-04-09T23:46:19.287Z,5.8
2023-04-09T23:51:18.256Z,5.9
2023-04-09T23:56:17.406Z,4.3
